Time;durP1;ratioP1;P1;durP2;ratioP2;P2;SDS_P1;SDS_P2;PMS_P1;PMS_P2;Temp;Humidity;BMP_temperature;BMP_pressure;BME280_temperature;BME280_humidity;BME280_pressure;Samples;Min_cycle;Max_cycle;Signal;HPM_P1;HPM_P2
2022/10/18 00:00:22;;;;;;;15.60;7.93;;;16.40;99.90;;;;;;10374120;28;20245;-76
2022/10/18 00:05:24;;;;;;;13.07;10.70;;;16.40;99.90;;;;;;10398564;28;20879;-77
2022/10/18 00:10:26;;;;;;;13.80;8.20;;;16.40;99.90;;;;;;10378940;28;20225;-79
2022/10/18 00:15:29;;;;;;;12.40;8.57;;;16.40;99.90;;;;;;10400755;28;20183;-79
2022/10/18 00:20:31;;;;;;;8.63;7.93;;;16.40;99.90;;;;;;10400207;28;20217;-79
2022/10/18 00:25:33;;;;;;;8.83;8.23;;;16.40;99.90;;;;;;10413044;28;20237;-79
2022/10/18 00:30:37;;;;;;;9.10;8.20;;;16.40;99.90;;;;;;10386425;28;20234;-79
2022/10/18 00:35:39;;;;;;;12.80;7.97;;;16.40;99.90;;;;;;10378522;28;20214;-78
2022/10/18 00:40:41;;;;;;;12.50;7.67;;;16.40;99.90;;;;;;10378847;28;20305;-79
2022/10/18 00:45:44;;;;;;;7.70;7.20;;;16.40;99.90;;;;;;10378374;28;20221;-79
2022/10/18 00:50:47;;;;;;;10.70;7.87;;;16.50;99.90;;;;;;10378759;28;20298;-79
2022/10/18 00:55:49;;;;;;;10.37;7.97;;;16.50;99.90;;;;;;10380055;28;20262;-79
2022/10/18 01:00:53;;;;;;;9.17;8.27;;;16.50;99.90;;;;;;10377382;28;20226;-79
2022/10/18 01:05:55;;;;;;;9.40;8.60;;;16.60;99.90;;;;;;10373597;28;20199;-79
2022/10/18 01:11:12;;;;;;;8.97;8.10;;;16.60;99.90;;;;;;10374278;28;20227;-79
2022/10/18 01:16:21;;;;;;;8.83;7.70;;;16.70;99.90;;;;;;10377124;28;20224;-79
2022/10/18 01:21:34;;;;;;;10.37;8.33;;;16.70;99.90;;;;;;10379737;28;20244;-79
2022/10/18 01:26:52;;;;;;;9.87;7.13;;;16.70;99.90;;;;;;10378057;28;20333;-79
2022/10/18 01:31:59;;;;;;;7.83;7.13;;;16.70;99.90;;;;;;10378273;28;20217;-79
2022/10/18 01:37:07;;;;;;;8.00;7.30;;;16.80;99.90;;;;;;10335758;28;20552;-78
2022/10/18 01:42:12;;;;;;;7.50;6.90;;;16.80;99.90;;;;;;10338390;28;20242;-79
2022/10/18 01:47:16;;;;;;;7.37;6.80;;;16.80;99.90;;;;;;10338412;28;20192;-80
2022/10/18 01:52:18;;;;;;;16.50;8.20;;;16.90;99.90;;;;;;10362738;28;20210;-79
2022/10/18 01:57:26;;;;;;;7.33;6.77;;;16.90;99.90;;;;;;10392302;28;20588;-79
2022/10/18 02:02:43;;;;;;;9.33;7.83;;;16.90;99.90;;;;;;10337260;28;20604;-79
2022/10/18 02:07:52;;;;;;;8.23;7.43;;;17.00;99.90;;;;;;10322213;28;20225;-80
2022/10/18 02:12:55;;;;;;;12.00;8.77;;;17.00;99.90;;;;;;10385289;28;20564;-78
2022/10/18 02:18:00;;;;;;;8.80;8.00;;;17.00;99.90;;;;;;10379215;28;20191;-78
2022/10/18 02:23:05;;;;;;;8.70;7.90;;;17.00;99.90;;;;;;10379766;28;20210;-79
2022/10/18 02:28:07;;;;;;;10.93;7.10;;;17.10;99.90;;;;;;10384043;28;20266;-79
2022/10/18 02:33:16;;;;;;;8.33;7.73;;;17.10;99.90;;;;;;10383715;28;20756;-80
2022/10/18 02:38:20;;;;;;;7.70;7.20;;;17.10;99.90;;;;;;10385169;28;20678;-79
2022/10/18 02:43:25;;;;;;;8.10;7.50;;;17.10;99.90;;;;;;10385253;28;20305;-80
2022/10/18 02:48:28;;;;;;;7.83;7.20;;;17.10;99.90;;;;;;10385139;28;20203;-79
2022/10/18 02:53:30;;;;;;;8.70;8.10;;;17.10;99.90;;;;;;10383331;28;20242;-79
2022/10/18 02:58:32;;;;;;;8.77;8.00;;;17.10;99.90;;;;;;10381803;28;20309;-79
2022/10/18 03:03:36;;;;;;;9.33;8.40;;;17.10;99.90;;;;;;10381220;28;20368;-79
2022/10/18 03:08:38;;;;;;;8.93;8.00;;;17.10;99.90;;;;;;10382032;28;20631;-79
2022/10/18 03:13:40;;;;;;;9.47;8.50;;;17.10;99.90;;;;;;10382787;28;20225;-80
2022/10/18 03:18:43;;;;;;;10.53;9.20;;;17.20;99.90;;;;;;10341121;28;20207;-79
2022/10/18 03:23:45;;;;;;;10.63;9.80;;;17.20;99.90;;;;;;10398570;28;20248;-79
2022/10/18 03:28:47;;;;;;;8.50;7.80;;;17.20;99.90;;;;;;10388382;28;20218;-78
2022/10/18 03:33:51;;;;;;;8.63;7.83;;;17.20;99.90;;;;;;10385090;28;20221;-79
2022/10/18 03:38:53;;;;;;;8.57;7.97;;;17.10;99.90;;;;;;10382112;28;20197;-79
2022/10/18 03:43:55;;;;;;;9.40;8.53;;;17.20;99.90;;;;;;10382546;28;20234;-78
2022/10/18 03:48:58;;;;;;;9.43;8.63;;;17.10;99.90;;;;;;10383006;28;20203;-79
2022/10/18 03:54:00;;;;;;;11.30;9.30;;;17.10;99.90;;;;;;10390291;28;20297;-77
2022/10/18 03:59:03;;;;;;;9.97;8.97;;;17.10;99.90;;;;;;10380369;28;20207;-78
2022/10/18 04:04:06;;;;;;;8.63;8.03;;;17.10;99.90;;;;;;10381091;28;20673;-79
2022/10/18 04:09:09;;;;;;;11.73;8.90;;;17.10;99.90;;;;;;10380208;28;20647;-78
2022/10/18 04:14:11;;;;;;;9.63;8.90;;;17.10;99.90;;;;;;10367490;28;20713;-78
2022/10/18 04:19:14;;;;;;;9.57;8.87;;;17.00;99.90;;;;;;10381600;28;20190;-77
2022/10/18 04:24:17;;;;;;;8.47;7.87;;;17.00;99.90;;;;;;10375577;28;20241;-80
2022/10/18 04:29:19;;;;;;;9.03;8.30;;;16.90;99.90;;;;;;10379717;28;20289;-79
2022/10/18 04:34:22;;;;;;;9.40;8.50;;;16.90;99.90;;;;;;10377856;28;20230;-79
2022/10/18 04:39:24;;;;;;;7.80;7.20;;;17.00;99.90;;;;;;10377872;28;20202;-77
2022/10/18 04:44:26;;;;;;;9.40;8.80;;;17.00;99.90;;;;;;10371904;28;20207;-77
2022/10/18 04:49:29;;;;;;;9.63;8.70;;;17.00;99.90;;;;;;10372164;28;20273;-77
2022/10/18 04:54:31;;;;;;;9.27;8.57;;;17.00;99.90;;;;;;10372877;28;20177;-76
2022/10/18 04:59:33;;;;;;;7.83;6.67;;;17.00;99.90;;;;;;10372372;28;20223;-77
2022/10/18 05:04:37;;;;;;;8.40;7.73;;;17.20;99.90;;;;;;10372091;28;20228;-78
2022/10/18 05:09:39;;;;;;;8.90;8.20;;;17.30;99.90;;;;;;10371048;28;20601;-77
2022/10/18 05:14:41;;;;;;;8.87;7.70;;;17.40;99.90;;;;;;10370633;28;20201;-76
2022/10/18 05:19:44;;;;;;;8.37;7.77;;;17.50;99.90;;;;;;10368762;28;20202;-76
2022/10/18 05:24:46;;;;;;;7.70;7.00;;;17.50;99.90;;;;;;10353161;28;20305;-79
2022/10/18 05:29:48;;;;;;;8.23;7.70;;;17.50;99.90;;;;;;10370483;28;20215;-78
2022/10/18 05:34:52;;;;;;;8.50;7.80;;;17.60;99.90;;;;;;10370457;28;20195;-77
2022/10/18 05:39:54;;;;;;;10.40;7.70;;;17.60;99.90;;;;;;10370926;28;20616;-78
2022/10/18 05:44:56;;;;;;;8.90;8.30;;;17.60;99.90;;;;;;10370973;28;20226;-77
2022/10/18 05:49:59;;;;;;;8.30;7.50;;;17.60;99.90;;;;;;10370268;28;20218;-77
2022/10/18 05:55:01;;;;;;;13.07;9.80;;;17.60;99.90;;;;;;10370045;28;20190;-78
2022/10/18 06:00:05;;;;;;;10.27;9.30;;;17.60;99.90;;;;;;10370217;28;20215;-77
2022/10/18 06:05:15;;;;;;;10.97;9.87;;;17.60;99.90;;;;;;10370827;28;20218;-77
2022/10/18 06:10:17;;;;;;;11.23;10.17;;;17.60;99.90;;;;;;10392243;23;20693;-80
2022/10/18 06:15:19;;;;;;;8.90;8.30;;;17.60;99.90;;;;;;10374656;28;20195;-80
2022/10/18 06:20:22;;;;;;;7.97;7.17;;;17.70;99.90;;;;;;10374091;28;20301;-78
2022/10/18 06:25:25;;;;;;;11.10;8.33;;;17.70;99.90;;;;;;10370223;28;20225;-77
2022/10/18 06:30:27;;;;;;;7.97;7.37;;;17.70;99.90;;;;;;10369032;28;20218;-78
2022/10/18 06:35:30;;;;;;;8.07;7.27;;;17.80;99.90;;;;;;10351924;28;20571;-78
2022/10/18 06:40:36;;;;;;;8.20;7.43;;;17.90;99.90;;;;;;10370424;28;20317;-80
2022/10/18 06:45:38;;;;;;;8.77;8.27;;;18.10;99.90;;;;;;10368624;28;20586;-80
2022/10/18 06:50:42;;;;;;;9.07;8.20;;;18.20;99.90;;;;;;10373868;28;20668;-81
2022/10/18 06:55:45;;;;;;;7.40;6.90;;;18.30;99.90;;;;;;10373917;28;20446;-80
2022/10/18 07:00:47;;;;;;;8.37;7.77;;;18.40;99.90;;;;;;10374133;28;20218;-79
2022/10/18 07:05:51;;;;;;;7.93;7.33;;;18.50;99.90;;;;;;10369354;28;20215;-78
2022/10/18 07:10:53;;;;;;;10.27;9.40;;;18.50;99.90;;;;;;10374665;28;20786;-78
2022/10/18 07:16:04;;;;;;;7.60;7.00;;;18.50;99.90;;;;;;10358845;28;20205;-79
2022/10/18 07:21:09;;;;;;;8.77;8.10;;;18.60;99.90;;;;;;10380160;28;20705;-80
2022/10/18 07:26:14;;;;;;;8.10;7.27;;;18.60;99.90;;;;;;10379725;28;20297;-79
2022/10/18 07:31:16;;;;;;;7.83;7.33;;;18.60;99.90;;;;;;10373658;28;20219;-79
2022/10/18 07:36:21;;;;;;;7.40;6.90;;;18.70;99.90;;;;;;10374741;28;20237;-78
2022/10/18 07:41:23;;;;;;;7.83;7.33;;;18.80;99.90;;;;;;10371589;28;20690;-79
2022/10/18 07:46:25;;;;;;;8.90;8.13;;;18.80;99.90;;;;;;10372533;28;20661;-78
2022/10/18 07:51:31;;;;;;;11.17;8.33;;;18.90;99.90;;;;;;10371045;28;20670;-79
2022/10/18 07:56:33;;;;;;;8.30;7.60;;;19.00;99.90;;;;;;10374345;28;20560;-78
2022/10/18 08:01:35;;;;;;;8.17;7.47;;;19.10;99.90;;;;;;10373721;28;20226;-78
2022/10/18 08:06:38;;;;;;;8.70;7.93;;;19.30;99.90;;;;;;10374039;28;20301;-79
2022/10/18 08:11:40;;;;;;;7.57;6.60;;;19.40;99.90;;;;;;10374905;28;20230;-78
2022/10/18 08:16:42;;;;;;;7.30;6.90;;;19.60;99.90;;;;;;10374561;28;20671;-78
2022/10/18 08:21:46;;;;;;;7.20;6.60;;;19.70;99.90;;;;;;10372728;28;20264;-77
2022/10/18 08:26:49;;;;;;;8.13;7.50;;;19.70;99.90;;;;;;10373919;28;20222;-78
2022/10/18 08:31:51;;;;;;;8.30;6.77;;;19.70;99.90;;;;;;10372218;28;20301;-80
2022/10/18 08:36:54;;;;;;;7.00;5.93;;;19.70;99.90;;;;;;10372094;28;20278;-78
2022/10/18 08:42:20;;;;;;;6.80;6.20;;;19.60;99.90;;;;;;10372316;28;20217;-79
2022/10/18 08:47:29;;;;;;;7.57;6.90;;;19.70;99.90;;;;;;10371453;28;20221;-79
2022/10/18 08:52:35;;;;;;;9.80;6.93;;;19.60;99.90;;;;;;10372366;28;20589;-79
2022/10/18 08:57:37;;;;;;;8.00;7.40;;;19.70;99.90;;;;;;10372468;28;20198;-77
2022/10/18 09:02:56;;;;;;;7.40;6.70;;;19.80;99.90;;;;;;10372222;28;20305;-78
2022/10/18 09:08:18;;;;;;;6.90;6.40;;;19.80;99.90;;;;;;10370852;28;20206;-77
2022/10/18 09:13:47;;;;;;;7.07;5.90;;;19.80;99.90;;;;;;10370068;28;20254;-80
2022/10/18 09:18:58;;;;;;;6.87;6.27;;;19.70;99.90;;;;;;10372157;28;20190;-78
2022/10/18 09:24:07;;;;;;;7.03;6.43;;;19.70;99.90;;;;;;10369809;28;20221;-78
2022/10/18 09:29:30;;;;;;;7.77;7.10;;;19.70;99.90;;;;;;10369773;28;20205;-78
2022/10/18 09:34:39;;;;;;;8.23;5.90;;;19.70;99.90;;;;;;10369734;28;20214;-78
2022/10/18 09:39:43;;;;;;;6.87;6.37;;;19.80;99.90;;;;;;10370022;28;20198;-79
2022/10/18 09:44:51;;;;;;;8.63;6.70;;;20.00;99.90;;;;;;10369996;28;20245;-79
2022/10/18 09:49:59;;;;;;;6.90;6.30;;;20.20;99.90;;;;;;10371936;28;20210;-78
2022/10/18 09:55:08;;;;;;;7.37;6.47;;;20.40;99.90;;;;;;10370939;28;20195;-78
2022/10/18 10:00:18;;;;;;;7.27;6.73;;;20.40;99.90;;;;;;10369736;28;20689;-78
2022/10/18 10:05:20;;;;;;;7.67;7.07;;;20.40;99.90;;;;;;10369431;28;20573;-79
2022/10/18 10:10:26;;;;;;;7.17;6.47;;;20.40;99.90;;;;;;10370634;28;20246;-79
2022/10/18 10:15:28;;;;;;;7.07;6.57;;;20.40;99.90;;;;;;10370945;28;20281;-80
2022/10/18 10:20:35;;;;;;;11.30;7.20;;;20.30;99.90;;;;;;10370416;28;20214;-79
2022/10/18 10:25:40;;;;;;;6.80;6.30;;;20.30;99.90;;;;;;10352242;28;20223;-78
2022/10/18 10:30:42;;;;;;;8.10;6.53;;;20.20;99.90;;;;;;10368547;28;20230;-80
2022/10/18 10:35:44;;;;;;;8.60;7.80;;;20.00;99.90;;;;;;10369840;28;20616;-78
2022/10/18 10:40:49;;;;;;;9.30;8.40;;;19.80;99.90;;;;;;10368543;28;20221;-80
2022/10/18 10:46:01;;;;;;;9.63;7.63;;;19.70;99.90;;;;;;10375624;28;20221;-78
2022/10/18 10:51:06;;;;;;;7.50;6.93;;;19.60;99.90;;;;;;10376866;28;20226;-78
2022/10/18 10:56:20;;;;;;;8.43;7.63;;;19.50;99.90;;;;;;10375626;28;20194;-79
2022/10/18 11:01:41;;;;;;;6.60;6.20;;;19.50;99.90;;;;;;10359712;28;20214;-78
2022/10/18 11:06:49;;;;;;;7.30;6.70;;;19.50;99.90;;;;;;10337405;28;20214;-78
2022/10/18 11:12:01;;;;;;;7.37;6.77;;;19.60;99.90;;;;;;10376552;28;20229;-78
2022/10/18 11:17:12;;;;;;;7.80;7.20;;;19.70;99.90;;;;;;10375654;28;20222;-78
2022/10/18 11:22:19;;;;;;;10.20;8.27;;;19.90;99.90;;;;;;10376571;28;20210;-78
2022/10/18 11:27:27;;;;;;;9.20;8.40;;;20.00;99.90;;;;;;10377502;28;20663;-80
2022/10/18 11:32:39;;;;;;;9.30;8.50;;;20.00;99.90;;;;;;10378874;28;20226;-82
2022/10/18 11:37:58;;;;;;;13.20;7.17;;;20.00;99.90;;;;;;10381337;28;20194;-81
2022/10/18 11:43:10;;;;;;;8.90;8.10;;;20.00;99.90;;;;;;10381236;28;20214;-81
2022/10/18 11:48:37;;;;;;;7.43;6.93;;;19.90;99.90;;;;;;10377964;28;20190;-81
2022/10/18 11:53:48;;;;;;;8.50;6.80;;;20.00;99.90;;;;;;10377067;28;20750;-81
2022/10/18 11:59:13;;;;;;;8.80;8.10;;;20.10;99.90;;;;;;10378327;28;20195;-81
2022/10/18 12:04:19;;;;;;;8.03;7.40;;;20.30;99.90;;;;;;10385424;28;20241;-81
2022/10/18 12:09:28;;;;;;;8.60;7.80;;;20.30;99.90;;;;;;10378919;28;20229;-81
2022/10/18 12:14:36;;;;;;;7.63;6.93;;;20.20;99.90;;;;;;10365219;23;20639;-83
2022/10/18 12:19:40;;;;;;;7.63;6.93;;;20.20;99.90;;;;;;10375474;28;20955;-81
2022/10/18 12:24:42;;;;;;;7.37;6.67;;;20.10;99.90;;;;;;10343055;28;20219;-82
2022/10/18 12:29:51;;;;;;;6.47;5.60;;;20.10;99.90;;;;;;10320564;28;20195;-82
2022/10/18 12:34:58;;;;;;;5.77;5.30;;;20.20;99.90;;;;;;10337100;28;20876;-82
2022/10/18 12:40:03;;;;;;;6.90;6.10;;;20.30;99.90;;;;;;10345837;28;20227;-81
2022/10/18 12:45:22;;;;;;;7.03;5.37;;;20.40;99.90;;;;;;10351537;28;20683;-80
2022/10/18 12:50:30;;;;;;;6.43;5.93;;;20.50;99.90;;;;;;10321751;28;20277;-81
2022/10/18 12:55:35;;;;;;;5.00;4.60;;;20.60;99.90;;;;;;10338787;28;20562;-82
2022/10/18 13:01:01;;;;;;;6.03;5.60;;;20.60;99.90;;;;;;10339557;28;20219;-82
2022/10/18 13:06:04;;;;;;;9.60;6.60;;;20.60;99.90;;;;;;10321677;28;20619;-82
2022/10/18 13:11:32;;;;;;;6.50;6.00;;;20.50;99.90;;;;;;10338824;28;20309;-82
2022/10/18 13:16:42;;;;;;;11.93;6.53;;;20.50;99.90;;;;;;10317113;28;20685;-82
2022/10/18 13:21:54;;;;;;;6.60;6.10;;;20.40;99.90;;;;;;10323616;28;20315;-80
2022/10/18 13:27:21;;;;;;;7.10;6.50;;;20.50;99.90;;;;;;10335875;28;20587;-82
2022/10/18 13:32:31;;;;;;;7.90;6.67;;;20.50;99.90;;;;;;10332704;28;20222;-80
2022/10/18 13:37:33;;;;;;;6.27;5.80;;;20.60;99.90;;;;;;10334150;28;20577;-81
2022/10/18 13:42:35;;;;;;;5.77;5.33;;;20.50;99.90;;;;;;10333418;28;20290;-82
2022/10/18 13:47:38;;;;;;;9.60;5.30;;;20.40;99.90;;;;;;10334055;28;20223;-81
2022/10/18 13:52:58;;;;;;;6.07;5.43;;;20.30;99.90;;;;;;10320311;28;20219;-82
2022/10/18 13:58:09;;;;;;;4.50;4.17;;;20.20;99.90;;;;;;10335478;28;20203;-82
2022/10/18 14:03:44;;;;;;;6.20;5.53;;;20.10;99.90;;;;;;10332858;28;20710;-82
2022/10/18 14:08:55;;;;;;;6.80;5.27;;;20.10;99.90;;;;;;10331704;28;20227;-82
2022/10/18 14:14:06;;;;;;;8.43;5.60;;;20.00;99.90;;;;;;10330816;28;20234;-82
2022/10/18 14:19:17;;;;;;;6.27;5.67;;;20.10;99.90;;;;;;10322846;28;20600;-81
2022/10/18 14:24:24;;;;;;;5.93;5.57;;;20.10;99.90;;;;;;10324116;28;20230;-82
2022/10/18 14:29:26;;;;;;;6.87;6.33;;;20.00;99.90;;;;;;10353617;28;20205;-81
2022/10/18 14:34:28;;;;;;;9.87;7.33;;;20.00;99.90;;;;;;10355249;28;20227;-81
2022/10/18 14:39:32;;;;;;;4.87;4.40;;;20.00;99.90;;;;;;10359017;28;20219;-81
2022/10/18 14:44:34;;;;;;;7.17;6.60;;;20.00;99.90;;;;;;10347540;28;20385;-80
2022/10/18 14:49:42;;;;;;;6.73;6.33;;;20.00;99.90;;;;;;10350296;28;20671;-80
2022/10/18 14:54:49;;;;;;;6.70;6.30;;;20.00;99.90;;;;;;10347166;28;20215;-82
2022/10/18 14:59:58;;;;;;;6.03;5.63;;;20.00;99.90;;;;;;10342585;28;20496;-82
2022/10/18 15:05:07;;;;;;;7.17;6.50;;;20.10;99.90;;;;;;10340820;28;20215;-82
2022/10/18 15:10:16;;;;;;;5.47;5.00;;;20.20;99.90;;;;;;10342983;28;20206;-79
2022/10/18 15:15:25;;;;;;;7.30;6.70;;;20.20;99.90;;;;;;10331578;28;20294;-81
2022/10/18 15:20:30;;;;;;;4.50;4.03;;;20.20;99.90;;;;;;10349169;28;20211;-81
2022/10/18 15:25:34;;;;;;;6.20;5.90;;;20.20;99.90;;;;;;10332789;28;20219;-80
2022/10/18 15:30:41;;;;;;;5.70;5.40;;;20.20;99.90;;;;;;10323391;28;20223;-81
2022/10/18 15:35:43;;;;;;;7.80;6.43;;;20.20;99.90;;;;;;10312289;28;20646;-81
2022/10/18 15:40:47;;;;;;;6.60;6.20;;;20.20;99.90;;;;;;10345117;28;20219;-82
2022/10/18 15:45:51;;;;;;;6.80;6.30;;;20.10;99.90;;;;;;10349650;28;20307;-81
2022/10/18 15:50:55;;;;;;;7.97;7.00;;;20.10;99.90;;;;;;10343791;28;20223;-81
2022/10/18 15:56:01;;;;;;;7.50;7.00;;;20.00;99.90;;;;;;10343536;28;20282;-81
2022/10/18 16:01:03;;;;;;;7.73;7.00;;;19.90;99.90;;;;;;10351109;28;20664;-82
2022/10/18 16:06:08;;;;;;;7.27;6.73;;;19.90;99.90;;;;;;10358599;28;20312;-81
2022/10/18 16:11:16;;;;;;;10.17;8.27;;;19.80;99.90;;;;;;10349744;28;20227;-81
2022/10/18 16:16:23;;;;;;;7.70;6.83;;;19.80;99.90;;;;;;10344245;28;20195;-81
2022/10/18 16:21:27;;;;;;;8.50;8.00;;;19.70;99.90;;;;;;10337760;28;20250;-82
2022/10/18 16:26:33;;;;;;;9.00;7.93;;;19.70;99.90;;;;;;10343910;28;20277;-80
2022/10/18 16:31:36;;;;;;;8.20;7.47;;;19.60;99.90;;;;;;10350151;28;20568;-81
2022/10/18 16:36:38;;;;;;;8.20;7.70;;;19.60;99.90;;;;;;10355843;28;20245;-80
2022/10/18 16:41:41;;;;;;;7.60;7.20;;;19.50;99.90;;;;;;10326519;28;20245;-80
2022/10/18 16:46:44;;;;;;;9.80;9.10;;;19.40;99.90;;;;;;10339838;28;20261;-81
2022/10/18 16:51:46;;;;;;;9.83;9.03;;;19.40;99.90;;;;;;10340636;28;20238;-82
2022/10/18 16:56:53;;;;;;;11.10;10.00;;;19.30;99.90;;;;;;10356916;28;20191;-80
2022/10/18 17:02:00;;;;;;;9.67;9.07;;;19.30;99.90;;;;;;10325245;28;20230;-81
2022/10/18 17:07:03;;;;;;;8.60;8.10;;;19.20;99.90;;;;;;10330825;28;20329;-81
2022/10/18 17:12:07;;;;;;;9.10;8.43;;;19.20;99.90;;;;;;10334247;28;20230;-82
2022/10/18 17:17:11;;;;;;;9.73;8.93;;;19.20;99.90;;;;;;10316863;28;20624;-81
2022/10/18 17:22:13;;;;;;;9.10;8.40;;;19.20;99.90;;;;;;10318813;28;20326;-81
2022/10/18 17:27:17;;;;;;;11.10;10.27;;;19.20;99.90;;;;;;10335002;28;20219;-82
2022/10/18 17:32:19;;;;;;;10.37;9.60;;;19.20;99.90;;;;;;10334657;28;20223;-81
2022/10/18 17:37:21;;;;;;;10.30;9.60;;;19.20;99.90;;;;;;10335120;28;20192;-81
2022/10/18 17:42:24;;;;;;;10.40;9.40;;;19.10;99.90;;;;;;10316692;28;20613;-82
2022/10/18 17:47:26;;;;;;;11.40;10.33;;;19.10;99.90;;;;;;10334672;28;20574;-82
2022/10/18 17:52:29;;;;;;;10.43;9.63;;;19.00;99.90;;;;;;10335555;28;20827;-82
2022/10/18 17:57:32;;;;;;;10.87;9.97;;;18.90;99.90;;;;;;10333950;28;20580;-80
2022/10/18 18:02:34;;;;;;;10.17;9.27;;;18.90;99.90;;;;;;10338728;28;20254;-82
2022/10/18 18:07:36;;;;;;;8.90;8.20;;;18.90;99.90;;;;;;10333012;28;20208;-81
2022/10/18 18:12:42;;;;;;;9.73;9.03;;;18.80;99.90;;;;;;10334403;28;20702;-82
2022/10/18 18:17:44;;;;;;;15.47;13.97;;;18.70;99.90;;;;;;10343197;28;20218;-79
2022/10/18 18:22:46;;;;;;;13.60;12.50;;;18.70;99.90;;;;;;10331985;28;20227;-81
2022/10/18 18:27:50;;;;;;;11.07;10.07;;;18.60;99.90;;;;;;10321096;28;20736;-82
2022/10/18 18:32:52;;;;;;;10.43;9.37;;;18.50;99.90;;;;;;10347481;28;20273;-82
2022/10/18 18:37:54;;;;;;;10.40;9.60;;;18.50;99.90;;;;;;10338923;28;20199;-81
2022/10/18 18:42:57;;;;;;;12.10;11.20;;;18.40;99.90;;;;;;10338292;28;20582;-81
2022/10/18 18:47:59;;;;;;;13.50;12.40;;;18.30;99.90;;;;;;10338161;28;20227;-80
2022/10/18 18:53:01;;;;;;;13.50;12.37;;;18.30;99.90;;;;;;10342282;28;20243;-82
2022/10/18 18:58:05;;;;;;;9.70;8.80;;;18.20;99.90;;;;;;10336835;28;20207;-81
2022/10/18 19:03:08;;;;;;;12.17;11.30;;;18.20;99.90;;;;;;10337670;28;20314;-81
2022/10/18 19:08:10;;;;;;;12.47;11.43;;;18.10;99.90;;;;;;10335887;28;20459;-80
2022/10/18 19:13:17;;;;;;;12.00;11.10;;;18.00;99.90;;;;;;10345168;28;20227;-79
2022/10/18 19:18:19;;;;;;;15.03;13.70;;;17.90;99.90;;;;;;10329230;28;20298;-82
2022/10/18 19:23:21;;;;;;;14.13;12.83;;;17.90;99.90;;;;;;10326770;28;20230;-81
2022/10/18 19:28:24;;;;;;;14.10;12.63;;;17.80;99.90;;;;;;10349121;28;20215;-80
2022/10/18 19:33:26;;;;;;;12.60;11.40;;;17.80;99.90;;;;;;10331984;28;20222;-82
2022/10/18 19:38:28;;;;;;;15.10;11.17;;;17.70;99.90;;;;;;10332381;28;20195;-82
2022/10/18 19:43:32;;;;;;;12.40;10.97;;;17.70;99.90;;;;;;10348714;28;20309;-81
2022/10/18 19:48:34;;;;;;;12.30;11.10;;;17.60;99.90;;;;;;10352957;28;20668;-81
2022/10/18 19:53:36;;;;;;;11.50;10.50;;;17.60;99.90;;;;;;10325152;28;20215;-80
2022/10/18 19:58:39;;;;;;;13.33;11.93;;;17.50;99.90;;;;;;10345693;28;20305;-81
2022/10/18 20:03:42;;;;;;;15.60;12.20;;;17.50;99.90;;;;;;10356194;28;20277;-81
2022/10/18 20:08:44;;;;;;;12.80;11.60;;;17.50;99.90;;;;;;10337418;28;20236;-80
2022/10/18 20:13:48;;;;;;;11.73;10.73;;;17.40;99.90;;;;;;10344742;28;20226;-81
2022/10/18 20:18:55;;;;;;;13.70;12.57;;;17.40;99.90;;;;;;10344644;28;20206;-81
2022/10/18 20:23:57;;;;;;;15.77;14.10;;;17.30;99.90;;;;;;10349589;28;20226;-80
2022/10/18 20:29:01;;;;;;;13.80;12.50;;;17.30;99.90;;;;;;10339893;28;20223;-81
2022/10/18 20:34:06;;;;;;;13.77;12.33;;;17.30;99.90;;;;;;10323862;28;20290;-80
2022/10/18 20:39:09;;;;;;;14.70;13.27;;;17.20;99.90;;;;;;10328068;28;20254;-81
2022/10/18 20:44:16;;;;;;;29.97;15.93;;;17.20;99.90;;;;;;10346548;28;20279;-81
2022/10/18 20:49:18;;;;;;;19.17;17.00;;;17.10;99.90;;;;;;10333568;28;20211;-80
2022/10/18 20:54:20;;;;;;;18.67;13.07;;;17.10;99.90;;;;;;10341208;28;20227;-81
2022/10/18 20:59:23;;;;;;;13.97;12.60;;;17.00;99.90;;;;;;10356075;28;20192;-81
2022/10/18 21:04:25;;;;;;;18.90;14.47;;;17.00;99.90;;;;;;10361499;28;20214;-80
2022/10/18 21:09:27;;;;;;;13.13;11.80;;;17.00;99.90;;;;;;10368598;28;20219;-81
2022/10/18 21:14:31;;;;;;;12.00;10.80;;;16.90;99.90;;;;;;10348778;28;20223;-81
2022/10/18 21:19:34;;;;;;;12.37;11.47;;;16.90;99.90;;;;;;10361014;28;20188;-81
2022/10/18 21:24:36;;;;;;;12.70;11.40;;;16.90;99.90;;;;;;10324808;28;20227;-81
2022/10/18 21:29:40;;;;;;;13.27;11.97;;;16.90;99.90;;;;;;10342146;28;20256;-82
2022/10/18 21:34:45;;;;;;;11.60;10.50;;;16.80;99.90;;;;;;10344869;28;20705;-78
2022/10/18 21:39:47;;;;;;;11.37;10.57;;;16.80;99.90;;;;;;10344445;28;20199;-81
2022/10/18 21:44:50;;;;;;;11.57;10.37;;;16.80;99.90;;;;;;10339066;28;20223;-83
2022/10/18 21:49:52;;;;;;;11.47;10.43;;;16.80;99.90;;;;;;10319961;28;20244;-82
2022/10/18 21:54:54;;;;;;;10.90;10.00;;;16.80;99.90;;;;;;10354332;28;20199;-80
2022/10/18 21:59:58;;;;;;;12.23;10.77;;;16.80;99.90;;;;;;10356937;28;20663;-79
2022/10/18 22:05:00;;;;;;;11.67;10.77;;;16.80;99.90;;;;;;10358355;28;20203;-81
2022/10/18 22:10:02;;;;;;;11.90;11.00;;;16.70;99.90;;;;;;10340755;28;20227;-82
2022/10/18 22:15:07;;;;;;;13.20;12.20;;;16.70;99.90;;;;;;10359673;28;20290;-83
2022/10/18 22:20:10;;;;;;;12.60;11.57;;;16.70;99.90;;;;;;10360106;28;20576;-81
2022/10/18 22:25:12;;;;;;;11.10;10.20;;;16.60;99.90;;;;;;10349480;28;20267;-80
2022/10/18 22:30:16;;;;;;;11.67;10.73;;;16.60;99.90;;;;;;10328014;28;20222;-80
2022/10/18 22:35:18;;;;;;;12.60;11.20;;;16.60;99.90;;;;;;10318491;28;20349;-80
2022/10/18 22:40:20;;;;;;;13.03;12.00;;;16.50;99.90;;;;;;10340750;28;20215;-83
2022/10/18 22:45:24;;;;;;;13.23;12.00;;;16.50;99.90;;;;;;10344816;28;20263;-82
2022/10/18 22:50:28;;;;;;;14.27;12.87;;;16.50;99.90;;;;;;10325948;28;20215;-80
2022/10/18 22:55:30;;;;;;;15.00;13.50;;;16.40;99.90;;;;;;10352746;28;20205;-81
2022/10/18 23:00:34;;;;;;;15.67;14.07;;;16.40;99.90;;;;;;10349808;28;20247;-79
2022/10/18 23:05:37;;;;;;;13.97;12.77;;;16.50;99.90;;;;;;10348437;28;20223;-79
2022/10/18 23:10:41;;;;;;;15.10;13.90;;;16.60;99.90;;;;;;10309054;28;20273;-82
2022/10/18 23:15:44;;;;;;;14.60;13.20;;;16.60;99.90;;;;;;10324220;28;20219;-82
2022/10/18 23:20:46;;;;;;;14.30;13.10;;;16.70;99.90;;;;;;10323500;28;20242;-82
2022/10/18 23:25:48;;;;;;;14.27;12.93;;;16.70;99.90;;;;;;10325493;28;20203;-82
2022/10/18 23:30:52;;;;;;;14.40;13.20;;;16.70;99.90;;;;;;10339296;28;20223;-80
2022/10/18 23:35:54;;;;;;;13.67;12.47;;;16.70;99.90;;;;;;10338863;28;20199;-82
2022/10/18 23:40:56;;;;;;;14.77;13.47;;;16.70;99.90;;;;;;10322607;28;20251;-82
2022/10/18 23:45:59;;;;;;;14.33;13.03;;;16.70;99.90;;;;;;10339244;28;20310;-82
2022/10/18 23:51:02;;;;;;;14.33;13.10;;;16.70;99.90;;;;;;10338827;28;20219;-83
2022/10/18 23:56:06;;;;;;;15.00;13.60;;;16.60;99.90;;;;;;10323120;28;20250;-81
